Seneca Falls, NY

2:24 PM EST on November 28, 2014 (GMT -0500)
Oswego County | Change Station
CLOSE
Current Station
Airport
Location: Fulton,
Elevation: 472 ft
Nearby Weather Stations

Elev 472 ft 43.35 °N, 76.38 °W | Updated 4 minutes ago

Overcast
Overcast
25 °F
Feels Like 14 °F
N
12
Wind Variable Wind from WSW

Today
High -- | Low -- °F
--% Chance of Precip.
Yesterday
High -- | Low -- °F
Precip. -- in
7:15 AM 4:34 PM
Waxing Crescent, 43% visible
Pressure 30.19 in
Visibility 3.0 miles
Clouds Few 1900 ft
Mostly Cloudy 3500 ft
Overcast 4600 ft
Windchill 14 °F
Dew Point 19 °F
Humidity 78%
Rainfall 0.07 in
Snow Depth Not available.
UV 0 out of 12
Pollen .10 out of 12
Air Quality Not available.
Flu Activity Not available.
SPECI KFZY 281920Z AUTO 24010KT 3SM -SN FEW019 BKN035 OVC046 M04/M07 A3019 RMK AO2 P0000 T10391072

More Conditions Fewer Conditions

Pressure 30.19 in
Visibility 3.0 miles
Clouds Few 1900 ft
Mostly Cloudy 3500 ft
Overcast 4600 ft
Windchill 14 °F
Dew Point 19 °F
Humidity 78%
Rainfall 0.07 in
Snow Depth Not available.
UV 0 out of 12
Pollen .10 out of 12
Air Quality Not available.
Flu Activity Not available.
SPECI KFZY 281920Z AUTO 24010KT 3SM -SN FEW019 BKN035 OVC046 M04/M07 A3019 RMK AO2 P0000 T10391072

More Conditions Fewer Conditions

10-Day Weather Forecast

Almanac

Astronomy

Nov. 28, 2014 Rise Set
Actual Time
Civil Twilight
Nautical Twilight
Astronomical Twilight
Moon
Length of Visible Light
Length of Day
Tomorrow will be .
, % of the Moon is Illuminated

Today's Extremes

State Highs State Lows

Community

WunderPhotos

Upload Photos

1,774,266 photos uploaded!

WunderBlogs® & News

Nearby

Air Quality

  Air Quality AQ Index Pollutant
Not available.

Snow Depth

Station Depth Elevation

Earthquake Activity

City Distance Mag. Time & Date
Minimum magnitude displayed is 2.5.

Coastal Water Temperatures

Place Temperature

Nearby Weather Stations